Time;durP1;ratioP1;P1;durP2;ratioP2;P2;SDS_P1;SDS_P2;PMS_P1;PMS_P2;Temp;Humidity;BMP_temperature;BMP_pressure;BME280_temperature;BME280_humidity;BME280_pressure;Samples;Min_cycle;Max_cycle;Signal;HPM_P1;HPM_P2
2021/01/28 00:01:19;;;;;;;30.73;12.97;;;;;;;-0.89;85.46;99211.64;121683;1140;104336;-77
2021/01/28 00:03:48;;;;;;;34.10;16.03;;;;;;;-0.89;84.55;99209.06;121746;1141;104346;-76
2021/01/28 00:06:17;;;;;;;32.20;14.80;;;;;;;-0.89;84.88;99201.34;121679;1141;104355;-76
2021/01/28 00:08:46;;;;;;;33.30;15.90;;;;;;;-0.87;85.51;99196.28;121701;1141;104338;-77
2021/01/28 00:11:15;;;;;;;33.40;15.10;;;;;;;-0.87;84.74;99199.77;121732;1139;104495;-76
2021/01/28 00:13:44;;;;;;;38.85;18.05;;;;;;;-0.88;84.70;99185.09;121691;1141;104439;-75
2021/01/28 00:16:14;;;;;;;31.17;13.47;;;;;;;-0.88;84.45;99221.16;121723;1141;104365;-76
2021/01/28 00:18:43;;;;;;;33.17;14.47;;;;;;;-0.87;84.32;99194.61;121734;1141;104338;-75
2021/01/28 00:21:12;;;;;;;30.67;11.87;;;;;;;-0.87;83.92;99196.28;121704;1141;104333;-75
2021/01/28 00:23:41;;;;;;;30.87;12.93;;;;;;;-0.87;85.27;99192.03;121699;1141;104453;-75
2021/01/28 00:26:10;;;;;;;28.23;11.93;;;;;;;-0.88;84.42;99179.06;121604;1141;104401;-74
2021/01/28 00:28:39;;;;;;;35.23;16.23;;;;;;;-0.90;83.73;99173.83;121741;1141;104401;-75
2021/01/28 00:31:08;;;;;;;25.17;10.70;;;;;;;-0.90;84.54;99217.61;121712;1140;104404;-77
2021/01/28 00:33:37;;;;;;;37.60;17.53;;;;;;;-0.89;83.92;99191.03;121750;1141;104435;-76
2021/01/28 00:36:08;;;;;;;35.13;16.20;;;;;;;-0.87;84.35;99191.13;121721;1141;104557;-76
2021/01/28 00:38:39;;;;;;;27.70;12.33;;;;;;;-0.86;84.31;99198.94;121719;1140;104461;-77
2021/01/28 00:41:12;;;;;;;37.73;15.68;;;;;;;-0.84;84.30;99184.49;121783;1141;104361;-77
2021/01/28 00:43:41;;;;;;;30.33;13.73;;;;;;;-0.84;84.54;99205.09;121802;1141;104335;-77
2021/01/28 00:46:11;;;;;;;32.57;13.07;;;;;;;-0.84;84.06;99179.34;121780;1141;104834;-77
2021/01/28 00:48:42;;;;;;;32.35;14.80;;;;;;;-0.82;83.82;99180.31;121736;1140;104338;-76
2021/01/28 00:51:11;;;;;;;38.53;17.93;;;;;;;-0.81;84.16;99170.89;121659;1140;105288;-76
2021/01/28 00:53:40;;;;;;;50.80;23.00;;;;;;;-0.79;83.48;99166.73;121709;1141;104350;-77
2021/01/28 00:56:10;;;;;;;28.87;13.13;;;;;;;-0.77;83.52;99150.55;121734;1141;104455;-76
2021/01/28 00:58:51;;;;;;;42.47;19.80;;;;;;;-0.77;84.03;99129.06;121719;1141;104461;-75
2021/01/28 01:01:26;;;;;;;42.40;19.73;;;;;;;-0.77;83.89;99117.06;121748;1141;104448;-76
2021/01/28 01:03:55;;;;;;;34.37;15.50;;;;;;;-0.76;84.05;99125.70;121695;1141;104454;-79
2021/01/28 01:06:26;;;;;;;30.53;13.33;;;;;;;-0.79;83.92;99128.98;121729;1140;104343;-77
2021/01/28 01:08:55;;;;;;;33.30;15.15;;;;;;;-0.79;84.64;99103.22;121719;1140;104342;-77
2021/01/28 01:11:32;;;;;;;41.30;18.17;;;;;;;-0.79;83.67;99113.53;121720;1140;104332;-77
2021/01/28 01:14:01;;;;;;;43.03;20.57;;;;;;;-0.78;83.76;99123.04;121710;1141;104805;-78
2021/01/28 01:16:33;;;;;;;37.63;17.20;;;;;;;-0.78;83.56;99135.01;121667;1140;104451;-77
2021/01/28 01:19:07;;;;;;;37.83;18.75;;;;;;;-0.76;83.79;99121.44;121682;1141;104345;-76
2021/01/28 01:21:47;;;;;;;32.33;13.93;;;;;;;-0.74;83.59;99132.70;121708;1141;104345;-77
2021/01/28 01:24:20;;;;;;;39.43;18.87;;;;;;;-0.74;83.77;99144.70;121711;1141;104439;-76
2021/01/28 01:26:49;;;;;;;29.73;13.30;;;;;;;-0.74;83.67;99158.46;121377;1141;104498;-74
2021/01/28 01:29:18;;;;;;;40.37;17.63;;;;;;;-0.72;83.62;99176.59;121700;1140;104467;-75
2021/01/28 01:32:07;;;;;;;38.03;17.07;;;;;;;-0.70;83.65;99176.67;121678;1141;104353;-75
2021/01/28 01:34:44;;;;;;;44.20;21.70;;;;;;;-0.66;83.78;99166.64;121686;1141;104350;-75
2021/01/28 01:37:14;;;;;;;43.70;20.07;;;;;;;-0.65;83.60;99172.70;121743;1141;104380;-77
2021/01/28 01:39:46;;;;;;;30.80;13.83;;;;;;;-0.62;83.51;99172.89;121711;1140;104461;-75
2021/01/28 01:42:16;;;;;;;29.57;13.93;;;;;;;-0.63;84.11;99165.95;121690;1141;104571;-75
2021/01/28 01:44:47;;;;;;;34.60;14.73;;;;;;;-0.64;83.42;99161.58;121680;1141;104343;-76
2021/01/28 01:47:44;;;;;;;29.57;13.20;;;;;;;-0.63;83.81;99155.64;121697;1141;104789;-75
2021/01/28 01:50:29;;;;;;;28.65;13.55;;;;;;;-0.62;83.06;99163.45;121481;1141;104416;-76
2021/01/28 01:52:57;;;;;;;;;;;;;;;-0.62;83.21;99178.92;121517;1141;104239;-77
2021/01/28 01:55:29;;;;;;;32.23;13.97;;;;;;;-0.62;82.90;99178.04;121730;1141;104463;-77
2021/01/28 01:58:07;;;;;;;28.03;11.93;;;;;;;-0.63;83.33;99161.67;121702;1141;104351;-77
2021/01/28 02:00:48;;;;;;;32.37;12.57;;;;;;;-0.61;83.46;99169.48;121731;1141;104489;-76
2021/01/28 02:03:23;;;;;;;29.43;12.47;;;;;;;-0.61;83.46;99148.88;121736;1140;104338;-77
2021/01/28 02:06:15;;;;;;;;;;;;;;;-0.61;83.35;99148.88;121745;1141;104337;-77
2021/01/28 02:09:06;;;;;;;28.47;12.00;;;;;;;-0.60;84.07;99150.66;121687;1141;104371;-76
2021/01/28 02:11:53;;;;;;;28.57;11.97;;;;;;;-0.59;83.39;99139.57;121717;1141;104341;-76
2021/01/28 02:14:40;;;;;;;31.90;14.70;;;;;;;-0.59;83.34;99131.84;121716;1140;104394;-77
2021/01/28 02:17:21;;;;;;;32.90;15.00;;;;;;;-0.58;83.94;99141.33;121714;1141;104345;-76
2021/01/28 02:20:26;;;;;;;28.23;11.47;;;;;;;-0.59;83.59;99142.14;121774;1141;104464;-78
2021/01/28 02:23:22;;;;;;;26.83;11.13;;;;;;;-0.59;83.28;99149.88;121660;1141;104345;-77
2021/01/28 02:25:53;;;;;;;31.60;12.67;;;;;;;-0.58;84.09;99162.84;121603;1141;104429;-74
2021/01/28 02:28:23;;;;;;;26.03;11.70;;;;;;;-0.57;83.38;99184.34;121295;1141;104499;-76
2021/01/28 02:30:57;;;;;;;27.20;10.75;;;;;;;-0.59;83.20;99167.91;121706;1140;104342;-76
2021/01/28 02:33:45;;;;;;;29.10;12.65;;;;;;;-0.59;84.10;99175.64;121630;1141;104364;-76
2021/01/28 02:36:34;;;;;;;29.00;13.23;;;;;;;-0.60;83.42;99167.00;121667;1141;104462;-75
2021/01/28 02:39:23;;;;;;;41.83;19.73;;;;;;;-0.61;83.83;99174.64;121723;1141;104335;-75
2021/01/28 02:42:05;;;;;;;34.50;15.60;;;;;;;-0.60;83.13;99176.43;121782;1140;104438;-77
2021/01/28 02:44:35;;;;;;;36.63;17.63;;;;;;;-0.58;83.53;99174.82;121752;1141;104495;-76
2021/01/28 02:47:24;;;;;;;32.13;14.67;;;;;;;-0.59;84.14;99178.22;121728;1141;104473;-76
2021/01/28 02:50:13;;;;;;;33.17;15.83;;;;;;;-0.60;83.71;99182.46;121728;1141;104885;-76
2021/01/28 02:52:42;;;;;;;37.10;17.33;;;;;;;-0.59;84.08;99189.41;121715;1141;104808;-81
2021/01/28 02:55:17;;;;;;;24.17;10.50;;;;;;;-0.58;83.53;99169.67;121683;1141;104438;-76
2021/01/28 02:57:46;;;;;;;26.27;11.30;;;;;;;-0.60;84.15;99169.58;121754;1140;104343;-76
2021/01/28 03:00:20;;;;;;;31.87;14.17;;;;;;;-0.59;83.48;99175.64;121761;1141;104511;-75
2021/01/28 03:02:52;;;;;;;25.37;10.38;;;;;;;-0.58;84.13;99174.82;121701;1140;104331;-76
2021/01/28 03:05:24;;;;;;;25.43;11.73;;;;;;;-0.59;83.22;99173.06;121725;1140;104365;-76
2021/01/28 03:07:53;;;;;;;25.47;10.63;;;;;;;-0.58;83.67;99167.09;121766;1141;104464;-77
2021/01/28 03:10:24;;;;;;;33.20;15.40;;;;;;;-0.58;83.37;99157.70;121768;1141;104338;-77
2021/01/28 03:13:05;;;;;;;31.57;14.70;;;;;;;-0.57;83.93;99159.45;121411;1141;104524;-77
2021/01/28 03:15:51;;;;;;;26.27;10.40;;;;;;;-0.56;83.15;99161.23;121667;1141;104344;-76
2021/01/28 03:18:21;;;;;;;31.67;13.93;;;;;;;-0.57;84.01;99158.58;121418;1140;104490;-76
2021/01/28 03:20:51;;;;;;;31.83;14.33;;;;;;;-0.57;83.99;99154.30;121702;1141;104380;-76
2021/01/28 03:23:40;;;;;;;26.47;10.93;;;;;;;-0.56;83.93;99155.20;121746;1140;104403;-76
2021/01/28 03:26:19;;;;;;;32.33;15.97;;;;;;;-0.58;83.36;99157.70;121667;1141;104345;-77
2021/01/28 03:28:49;;;;;;;29.47;10.90;;;;;;;-0.57;83.11;99154.30;121700;1141;104374;-75
2021/01/28 03:31:24;;;;;;;23.43;10.23;;;;;;;-0.56;83.42;99170.67;121703;1141;104484;-77
2021/01/28 03:33:54;;;;;;;29.33;13.47;;;;;;;-0.56;83.25;99174.12;121737;1140;104377;-77
2021/01/28 03:36:25;;;;;;;29.27;12.97;;;;;;;-0.56;83.23;99173.25;121716;1141;104342;-76
2021/01/28 03:38:58;;;;;;;28.83;11.10;;;;;;;-0.55;83.29;99175.00;121684;1140;104495;-76
2021/01/28 03:41:27;;;;;;;29.07;12.73;;;;;;;-0.56;83.66;99175.82;121690;1140;104492;-76
2021/01/28 03:43:57;;;;;;;25.67;11.60;;;;;;;-0.54;83.72;99166.48;121724;1140;104404;-77
2021/01/28 03:46:26;;;;;;;30.27;14.57;;;;;;;-0.54;83.07;99169.06;121681;1141;104335;-78
2021/01/28 03:48:56;;;;;;;28.50;11.83;;;;;;;-0.52;83.71;99171.73;121723;1140;104352;-75
2021/01/28 03:51:31;;;;;;;24.53;10.10;;;;;;;-0.54;83.39;99166.48;121701;1140;104332;-75
2021/01/28 03:54:17;;;;;;;32.10;13.87;;;;;;;-0.52;84.08;99162.30;121722;1140;104348;-75
2021/01/28 03:56:51;;;;;;;27.07;12.87;;;;;;;-0.51;84.05;99158.93;121690;1140;104404;-76
2021/01/28 03:59:21;;;;;;;26.40;11.00;;;;;;;-0.50;83.12;99163.27;121727;1141;104345;-76
2021/01/28 04:02:09;;;;;;;24.13;10.83;;;;;;;-0.51;83.38;99166.66;121708;1140;104341;-76
2021/01/28 04:04:58;;;;;;;30.27;12.93;;;;;;;-0.51;83.06;99169.23;121720;1141;104563;-77
2021/01/28 04:07:48;;;;;;;25.97;11.73;;;;;;;-0.51;83.38;99166.66;121689;1141;104438;-78
2021/01/28 04:10:25;;;;;;;26.70;11.53;;;;;;;-0.49;82.97;99167.63;121714;1140;104439;-76
2021/01/28 04:12:55;;;;;;;26.47;11.07;;;;;;;-0.49;83.36;99152.16;121705;1141;104335;-76
2021/01/28 04:15:38;;;;;;;22.80;9.23;;;;;;;-0.46;83.79;99177.23;121656;1140;104330;-77
2021/01/28 04:18:09;;;;;;;30.00;13.63;;;;;;;-0.49;83.85;99166.75;121642;1141;104782;-79
2021/01/28 04:20:43;;;;;;;25.20;10.33;;;;;;;-0.50;83.55;99168.41;121713;1141;104821;-78
2021/01/28 04:23:15;;;;;;;26.70;12.13;;;;;;;-0.50;84.01;99183.88;121716;1140;104355;-76
2021/01/28 04:26:04;;;;;;;27.17;11.93;;;;;;;-0.50;83.58;99191.61;121665;1141;104340;-76
2021/01/28 04:28:34;;;;;;;26.13;10.67;;;;;;;-0.50;84.15;99176.15;121716;1141;104426;-77
2021/01/28 04:31:17;;;;;;;22.50;9.37;;;;;;;-0.52;83.30;99185.48;121677;1141;104426;-76
2021/01/28 04:33:47;;;;;;;26.93;11.10;;;;;;;-0.53;83.55;99181.16;121637;1141;104449;-76
2021/01/28 04:36:24;;;;;;;27.17;11.87;;;;;;;-0.53;84.01;99181.16;121681;1141;104457;-76
2021/01/28 04:39:07;;;;;;;27.77;13.22;;;;;;;-0.53;83.60;99182.82;121683;1141;104566;-77
2021/01/28 04:41:37;;;;;;;26.87;10.40;;;;;;;-0.53;83.82;99181.16;121686;1141;104405;-76
2021/01/28 04:44:10;;;;;;;25.43;9.97;;;;;;;-0.52;84.03;99190.64;121693;1141;104515;-75
2021/01/28 04:46:51;;;;;;;25.43;11.07;;;;;;;-0.51;83.81;99194.09;121648;1141;104794;-79
2021/01/28 04:49:52;;;;;;;28.33;12.77;;;;;;;-0.52;83.90;99195.80;121678;1141;104439;-76
2021/01/28 04:52:43;;;;;;;26.60;12.07;;;;;;;-0.50;84.20;99196.77;121682;1141;104351;-78
2021/01/28 04:55:36;;;;;;;28.60;11.60;;;;;;;-0.49;84.15;99201.13;121440;1141;104515;-78
2021/01/28 04:58:07;;;;;;;25.07;11.77;;;;;;;-0.49;83.56;99193.40;121784;1141;104497;-77
2021/01/28 05:00:50;;;;;;;27.23;11.23;;;;;;;-0.48;83.59;99202.92;121707;1141;104383;-78
2021/01/28 05:03:31;;;;;;;26.63;11.83;;;;;;;-0.49;83.91;99192.52;121756;1140;104348;-76
2021/01/28 05:06:20;;;;;;;32.13;13.93;;;;;;;-0.48;84.22;99196.85;121612;1141;104808;-78
2021/01/28 05:09:09;;;;;;;25.33;10.53;;;;;;;-0.47;84.28;99207.25;121482;1141;104340;-79
2021/01/28 05:11:59;;;;;;;26.33;11.83;;;;;;;-0.46;83.26;99201.31;121717;1141;104365;-78
2021/01/28 05:14:48;;;;;;;22.03;10.03;;;;;;;-0.45;83.19;99199.61;121685;1140;104338;-79
2021/01/28 05:17:38;;;;;;;24.33;9.83;;;;;;;-0.44;83.51;99206.55;121641;1141;104436;-79
2021/01/28 05:20:29;;;;;;;28.67;13.43;;;;;;;-0.44;83.68;99202.28;121497;1140;104338;-79
2021/01/28 05:23:30;;;;;;;26.47;11.83;;;;;;;-0.43;83.56;99204.06;121682;1141;104460;-78
2021/01/28 05:26:01;;;;;;;26.07;10.37;;;;;;;-0.42;83.16;99203.28;121730;1140;104339;-80
2021/01/28 05:28:42;;;;;;;26.30;11.93;;;;;;;-0.42;83.53;99204.94;121514;1141;104384;-79
2021/01/28 05:31:31;;;;;;;25.27;10.37;;;;;;;-0.43;83.80;99196.34;121501;1141;104342;-79
2021/01/28 05:34:26;;;;;;;27.27;11.60;;;;;;;-0.41;83.04;99202.45;121492;1140;105052;-81
2021/01/28 05:37:23;;;;;;;25.73;10.90;;;;;;;-0.38;83.81;99204.33;121576;1141;104494;-80
2021/01/28 05:40:18;;;;;;;27.40;12.33;;;;;;;-0.37;83.38;99200.97;121619;1141;104348;-78
2021/01/28 05:42:55;;;;;;;27.80;11.90;;;;;;;-0.35;83.33;99206.21;121544;1141;104408;-79
2021/01/28 05:45:38;;;;;;;25.20;11.43;;;;;;;-0.35;83.55;99209.67;121458;1140;104364;-80
2021/01/28 05:48:26;;;;;;;27.93;12.93;;;;;;;-0.34;83.27;99201.14;121404;1141;104455;-81
2021/01/28 05:51:20;;;;;;;31.90;13.83;;;;;;;-0.32;83.37;99193.50;122073;1140;104488;-80
2021/01/28 05:53:59;;;;;;;;;;;;;;;-0.31;83.78;99216.79;121495;1141;104368;-81
2021/01/28 05:56:35;;;;;;;24.43;9.40;;;;;;;-0.29;83.40;99193.68;121338;1141;104372;-80
2021/01/28 05:59:14;;;;;;;23.13;8.33;;;;;;;-0.30;82.66;99197.92;121352;1141;104429;-80
2021/01/28 06:01:59;;;;;;;24.33;9.97;;;;;;;-0.30;83.16;99203.08;121977;1141;104356;-82
2021/01/28 06:05:00;;;;;;;25.90;12.33;;;;;;;-0.28;83.40;99190.28;121365;1141;104370;-82
2021/01/28 06:08:00;;;;;;;24.20;9.90;;;;;;;-0.25;83.15;99200.77;121365;1141;104364;-79
2021/01/28 06:11:06;;;;;;;26.83;10.77;;;;;;;-0.25;83.22;99209.41;121436;1141;104438;-79
2021/01/28 06:14:14;;;;;;;27.83;11.77;;;;;;;-0.24;83.11;99198.28;121277;1141;104543;-79
2021/01/28 06:17:14;;;;;;;21.90;9.20;;;;;;;-0.22;83.60;99226.73;121165;1141;104348;-79
2021/01/28 06:20:09;;;;;;;27.37;11.53;;;;;;;-0.23;83.39;99200.06;121439;1141;104359;-81
2021/01/28 06:22:49;;;;;;;27.10;12.30;;;;;;;-0.20;83.25;99207.98;121455;1141;104494;-81
2021/01/28 06:25:53;;;;;;;25.17;10.33;;;;;;;-0.19;83.52;99202.03;122079;1140;104416;-79
2021/01/28 06:28:40;;;;;;;25.10;10.10;;;;;;;-0.17;82.79;99214.10;121051;1141;104359;-77
2021/01/28 06:31:21;;;;;;;23.27;10.57;;;;;;;-0.16;83.00;99221.05;122636;1140;102124;-80
2021/01/28 06:34:35;;;;;;;25.53;10.43;;;;;;;-0.14;83.45;99211.70;121472;1141;104873;-80
2021/01/28 06:37:34;;;;;;;24.63;10.50;;;;;;;-0.14;82.68;99217.77;121448;1141;104420;-81
2021/01/28 06:40:29;;;;;;;23.93;9.80;;;;;;;-0.14;82.83;99210.03;121334;1141;104463;-79
2021/01/28 06:43:24;;;;;;;25.10;10.30;;;;;;;-0.14;83.09;99227.17;121435;1141;104572;-81
2021/01/28 06:46:27;;;;;;;24.37;10.53;;;;;;;-0.14;83.05;99222.02;121075;1141;104572;-80
2021/01/28 06:49:12;;;;;;;26.35;11.68;;;;;;;-0.13;83.56;99222.10;121040;1141;104522;-81
2021/01/28 06:51:56;;;;;;;25.00;10.53;;;;;;;-0.11;83.16;99222.19;122091;1141;103112;-79
2021/01/28 06:54:32;;;;;;;26.30;11.70;;;;;;;-0.09;83.39;99236.08;120853;1141;104540;-80
2021/01/28 06:57:26;;;;;;;21.43;9.37;;;;;;;-0.09;82.44;99273.06;120932;1141;104386;-79
2021/01/28 07:00:20;;;;;;;22.50;8.93;;;;;;;-0.09;82.61;99243.82;120885;1141;104403;-81
2021/01/28 07:03:00;;;;;;;21.67;7.83;;;;;;;-0.11;83.09;99263.45;120869;1141;103315;-80
2021/01/28 07:05:53;;;;;;;25.95;11.00;;;;;;;-0.12;82.49;99254.83;120810;1141;104540;-80
2021/01/28 07:08:47;;;;;;;27.53;10.73;;;;;;;-0.13;82.46;99265.94;120865;1141;104393;-78
2021/01/28 07:11:35;;;;;;;25.33;10.40;;;;;;;-0.13;82.62;99252.17;120763;1141;104390;-81
2021/01/28 07:14:22;;;;;;;23.97;10.10;;;;;;;-0.13;83.04;99253.05;120931;1144;104534;-81
2021/01/28 07:17:15;;;;;;;25.87;12.20;;;;;;;-0.13;82.95;99253.05;121093;1141;104515;-81
2021/01/28 07:19:51;;;;;;;26.23;11.10;;;;;;;-0.13;82.76;99258.20;121496;1141;104538;-81
2021/01/28 07:22:30;;;;;;;25.03;9.97;;;;;;;-0.14;83.31;99259.02;121351;1141;104372;-80
2021/01/28 07:25:24;;;;;;;22.60;8.97;;;;;;;-0.15;83.51;99272.70;121318;1140;104433;-81
2021/01/28 07:27:59;;;;;;;27.03;11.13;;;;;;;-0.14;82.81;99274.50;122390;1141;104333;-79
2021/01/28 07:30:42;;;;;;;24.60;10.20;;;;;;;-0.15;83.59;99289.88;120825;1141;104551;-79
2021/01/28 07:33:38;;;;;;;24.23;11.13;;;;;;;-0.16;83.25;99298.40;121404;1141;104410;-80
2021/01/28 07:36:39;;;;;;;22.37;9.53;;;;;;;-0.17;83.00;99282.05;121255;1141;104375;-80
2021/01/28 07:39:41;;;;;;;27.40;11.40;;;;;;;-0.16;83.60;99288.09;121513;1141;104334;-79
2021/01/28 07:42:31;;;;;;;24.47;9.50;;;;;;;-0.16;83.76;99293.24;121492;1141;104432;-78
2021/01/28 07:45:31;;;;;;;23.73;10.10;;;;;;;-0.17;83.29;99302.68;121450;1141;104359;-79
2021/01/28 07:48:32;;;;;;;28.70;12.27;;;;;;;-0.17;83.14;99312.08;121258;1141;104366;-80
2021/01/28 07:51:32;;;;;;;17.95;7.90;;;;;;;-0.17;83.53;99312.99;121238;1141;104551;-80
2021/01/28 07:54:04;;;;;;;25.63;11.33;;;;;;;-0.16;83.26;99309.59;122874;1141;104583;-81
2021/01/28 07:56:48;;;;;;;23.53;9.80;;;;;;;-0.14;83.07;99323.48;121210;1141;104454;-83
2021/01/28 07:59:32;;;;;;;24.60;10.50;;;;;;;-0.15;82.73;99321.70;121431;1141;104461;-79
2021/01/28 08:02:15;;;;;;;29.42;11.15;;;;;;;-0.16;83.63;99325.06;121505;1141;104518;-79
2021/01/28 08:04:49;;;;;;;22.03;9.47;;;;;;;-0.15;83.30;99319.12;121679;1141;104464;-78
2021/01/28 08:07:27;;;;;;;21.60;8.93;;;;;;;-0.15;83.03;99320.81;121445;1141;104342;-79
2021/01/28 08:10:05;;;;;;;21.50;8.67;;;;;;;-0.20;83.36;99326.58;121258;1141;104527;-81
2021/01/28 08:12:44;;;;;;;20.03;9.20;;;;;;;-0.22;83.82;99330.77;121914;1141;102663;-83
2021/01/28 08:15:19;;;;;;;24.67;9.10;;;;;;;-0.25;83.92;99342.56;121525;1141;104492;-80
2021/01/28 08:18:01;;;;;;;23.93;11.27;;;;;;;-0.28;83.80;99330.41;121128;1141;104388;-82
2021/01/28 08:20:33;;;;;;;20.20;8.50;;;;;;;-0.30;83.11;99344.86;121159;1141;104362;-81
2021/01/28 08:23:07;;;;;;;22.50;8.63;;;;;;;-0.31;83.94;99335.38;121187;1141;104370;-81
2021/01/28 08:25:52;;;;;;;23.47;10.33;;;;;;;-0.32;83.86;99335.28;123332;1139;101793;-83
2021/01/28 08:28:21;;;;;;;18.00;7.60;;;;;;;-0.31;83.77;99337.95;122797;1141;103362;-80
2021/01/28 08:31:00;;;;;;;21.23;7.90;;;;;;;-0.28;84.01;99334.64;122191;1140;104477;-84
2021/01/28 08:33:30;;;;;;;20.20;8.65;;;;;;;-0.25;83.32;99339.98;121301;1141;104538;-80
2021/01/28 08:36:02;;;;;;;15.77;7.10;;;;;;;-0.24;83.90;99334.05;121452;1141;104457;-79
2021/01/28 08:38:34;;;;;;;18.47;8.10;;;;;;;-0.29;83.79;99338.92;121523;1140;104337;-79
2021/01/28 08:41:13;;;;;;;17.47;6.73;;;;;;;-0.27;83.78;99347.63;121609;1141;104358;-78
2021/01/28 08:43:43;;;;;;;17.00;7.93;;;;;;;-0.28;83.30;99337.22;121387;1141;104374;-78
2021/01/28 08:46:19;;;;;;;14.60;6.23;;;;;;;-0.30;84.16;99336.25;121453;1141;104360;-80
2021/01/28 08:48:49;;;;;;;17.20;7.33;;;;;;;-0.31;83.79;99332.80;121730;1140;104409;-80
2021/01/28 08:51:24;;;;;;;19.97;9.17;;;;;;;-0.27;83.86;99331.28;121583;1141;104362;-81
2021/01/28 08:54:00;;;;;;;18.27;8.40;;;;;;;-0.23;83.26;99331.55;121246;1141;104518;-79
2021/01/28 08:56:37;;;;;;;12.97;5.97;;;;;;;-0.16;83.91;99326.77;121444;1140;104426;-81
2021/01/28 08:59:13;;;;;;;14.57;6.33;;;;;;;-0.09;83.45;99334.95;121364;1141;104463;-82
2021/01/28 09:01:48;;;;;;;13.63;6.47;;;;;;;-0.06;83.37;99318.78;121323;1141;104473;-77
2021/01/28 09:04:24;;;;;;;15.83;6.60;;;;;;;-0.02;82.90;99333.62;121397;1141;104436;-79
2021/01/28 09:07:01;;;;;;;15.70;7.20;;;;;;;0.02;83.66;99333.01;121203;1141;104385;-81
2021/01/28 09:09:34;;;;;;;17.83;7.20;;;;;;;0.06;83.08;99341.80;121278;1140;104346;-79
2021/01/28 09:12:23;;;;;;;14.70;6.27;;;;;;;0.06;83.42;99357.28;121335;1141;104356;-80
2021/01/28 09:15:08;;;;;;;16.60;7.80;;;;;;;0.06;83.53;99347.84;121200;1141;104358;-80
2021/01/28 09:17:40;;;;;;;16.70;7.73;;;;;;;0.11;83.72;99337.80;121347;1141;104479;-83
2021/01/28 09:20:22;;;;;;;15.73;7.07;;;;;;;0.13;83.37;99336.22;121187;1141;104415;-79
2021/01/28 09:23:07;;;;;;;15.70;6.85;;;;;;;0.12;82.95;99324.98;121697;1140;104486;-77
2021/01/28 09:25:37;;;;;;;18.07;7.23;;;;;;;0.15;83.35;99338.06;121222;1141;104348;-81
2021/01/28 09:28:12;;;;;;;18.20;7.80;;;;;;;0.19;83.30;99323.67;121411;1140;104476;-80
2021/01/28 09:30:46;;;;;;;18.50;8.77;;;;;;;0.22;82.71;99326.44;122149;1140;101806;-78
2021/01/28 09:33:33;;;;;;;14.07;6.10;;;;;;;0.25;83.49;99334.35;121205;1141;104495;-78
2021/01/28 09:36:07;;;;;;;16.40;6.90;;;;;;;0.22;83.06;99334.17;121239;1141;104390;-82
2021/01/28 09:38:37;;;;;;;16.10;7.47;;;;;;;0.22;83.36;99334.17;121614;1140;104364;-82
2021/01/28 09:41:17;;;;;;;16.53;7.70;;;;;;;0.25;83.76;99326.61;121150;1141;104413;-80
2021/01/28 09:43:47;;;;;;;18.20;8.13;;;;;;;0.24;83.82;99318.78;121473;1140;104343;-80
2021/01/28 09:46:30;;;;;;;16.70;6.83;;;;;;;0.23;84.06;99320.45;121392;1139;104520;-80
2021/01/28 09:49:03;;;;;;;14.27;6.87;;;;;;;0.24;83.55;99329.98;121477;1140;104404;-82
2021/01/28 09:51:35;;;;;;;14.53;6.13;;;;;;;0.23;83.87;99325.61;121113;1141;104482;-82
2021/01/28 09:54:15;;;;;;;12.75;6.20;;;;;;;0.28;83.71;99326.79;121213;1140;104789;-80
2021/01/28 09:56:53;;;;;;;18.03;7.40;;;;;;;0.33;84.08;99329.63;122776;1139;103121;-78
2021/01/28 09:59:23;;;;;;;14.63;7.00;;;;;;;0.36;84.00;99319.48;121221;1141;104468;-78
2021/01/28 10:01:53;;;;;;;16.47;7.30;;;;;;;0.34;83.26;99329.72;121349;1141;104359;-81
2021/01/28 10:04:23;;;;;;;17.60;7.70;;;;;;;0.30;83.43;99320.02;121659;1140;104938;-80
2021/01/28 10:06:52;;;;;;;16.50;7.07;;;;;;;0.29;83.73;99336.28;121358;1141;104474;-81
2021/01/28 10:09:24;;;;;;;16.63;7.27;;;;;;;0.25;83.65;99315.37;121378;1141;104611;-81
2021/01/28 10:11:55;;;;;;;16.90;7.23;;;;;;;0.27;84.06;99324.13;121509;1141;104338;-78
2021/01/28 10:14:25;;;;;;;16.53;7.37;;;;;;;0.28;84.04;99320.72;121563;1140;104377;-80
2021/01/28 10:16:54;;;;;;;14.57;6.63;;;;;;;0.27;84.77;99322.42;121352;1140;104378;-79
2021/01/28 10:19:23;;;;;;;14.77;6.80;;;;;;;0.28;83.65;99318.14;121038;1141;104355;-84
2021/01/28 10:21:53;;;;;;;12.70;6.37;;;;;;;0.32;83.71;99325.27;121327;1140;104434;-81
2021/01/28 10:24:23;;;;;;;14.80;6.37;;;;;;;0.37;83.28;99318.66;121278;1141;104371;-82
2021/01/28 10:26:52;;;;;;;15.20;6.20;;;;;;;0.38;82.95;99324.73;121321;1141;104433;-82
2021/01/28 10:29:21;;;;;;;17.13;7.17;;;;;;;0.35;82.71;99320.28;121428;1141;104706;-81
2021/01/28 10:31:53;;;;;;;19.73;8.60;;;;;;;0.31;83.84;99329.55;121170;1140;104355;-82
2021/01/28 10:34:26;;;;;;;18.00;7.07;;;;;;;0.32;82.79;99326.14;121141;1141;104364;-81
2021/01/28 10:36:56;;;;;;;15.90;6.50;;;;;;;0.32;82.81;99331.30;121107;1141;104493;-81
2021/01/28 10:39:25;;;;;;;14.27;6.50;;;;;;;0.34;83.06;99332.30;121037;1140;104552;-79
2021/01/28 10:41:54;;;;;;;17.17;7.53;;;;;;;0.33;82.66;99338.25;121334;1141;104405;-81
2021/01/28 10:44:24;;;;;;;16.85;7.20;;;;;;;0.30;82.79;99322.59;121352;1141;104374;-84
2021/01/28 10:46:54;;;;;;;15.57;6.87;;;;;;;0.28;82.77;99333.62;121428;1140;104455;-83
2021/01/28 10:49:24;;;;;;;15.80;6.80;;;;;;;0.26;83.25;99332.65;121341;1141;104616;-85
2021/01/28 10:51:54;;;;;;;15.13;6.90;;;;;;;0.25;82.87;99334.35;123317;1139;102450;-82
2021/01/28 10:54:23;;;;;;;16.77;7.40;;;;;;;0.24;83.24;99339.42;123300;1140;102108;-82
2021/01/28 10:56:53;;;;;;;17.03;7.40;;;;;;;0.26;83.37;99342.97;121941;1140;104357;-81
2021/01/28 10:59:23;;;;;;;19.60;7.97;;;;;;;0.27;83.06;99326.70;121528;1140;104473;-84
2021/01/28 11:01:54;;;;;;;18.50;7.37;;;;;;;0.28;82.73;99337.11;121320;1141;104359;-80
2021/01/28 11:04:23;;;;;;;17.93;7.20;;;;;;;0.30;82.89;99335.50;121290;1141;104344;-82
2021/01/28 11:06:53;;;;;;;19.20;8.07;;;;;;;0.34;82.89;99319.40;121195;1141;104382;-80
2021/01/28 11:09:26;;;;;;;18.53;8.50;;;;;;;0.34;82.97;99329.72;121174;1141;104399;-80
2021/01/28 11:11:56;;;;;;;;;;;;;;;0.34;82.97;99334.88;120986;1141;104473;-80
2021/01/28 11:14:26;;;;;;;21.13;8.80;;;;;;;0.34;82.93;99319.40;121232;1141;104345;-82
2021/01/28 11:16:56;;;;;;;18.93;8.03;;;;;;;0.34;82.46;99332.30;121127;1141;104511;-81
2021/01/28 11:19:29;;;;;;;23.47;9.95;;;;;;;0.32;82.46;99328.72;121219;1141;104399;-83
2021/01/28 11:22:01;;;;;;;22.20;9.33;;;;;;;0.34;82.21;99328.81;123237;1139;102239;-82
2021/01/28 11:24:30;;;;;;;20.03;8.67;;;;;;;0.37;82.49;99325.53;122799;1140;102147;-81
2021/01/28 11:27:00;;;;;;;20.47;9.23;;;;;;;0.37;82.45;99336.73;123202;1140;103209;-82
2021/01/28 11:29:33;;;;;;;17.87;7.50;;;;;;;0.40;82.08;99336.91;123274;1140;102365;-80
2021/01/28 11:32:03;;;;;;;21.20;8.47;;;;;;;0.40;82.08;99330.86;123305;1140;102008;-80
2021/01/28 11:34:32;;;;;;;20.37;8.50;;;;;;;0.41;82.02;99330.08;122633;1140;101879;-81
2021/01/28 11:37:07;;;;;;;18.80;8.50;;;;;;;0.41;82.44;99335.23;123302;1140;102052;-81
2021/01/28 11:39:37;;;;;;;21.63;9.57;;;;;;;0.45;82.43;99337.17;123300;1140;103002;-82
2021/01/28 11:42:06;;;;;;;20.70;8.60;;;;;;;0.43;82.36;99339.66;121716;1141;104358;-81
2021/01/28 11:44:36;;;;;;;20.33;8.07;;;;;;;0.43;82.16;99334.50;122526;1139;103040;-81
2021/01/28 11:47:06;;;;;;;21.77;9.40;;;;;;;0.43;82.10;99328.45;121330;1141;104386;-81
2021/01/28 11:49:35;;;;;;;22.10;8.30;;;;;;;0.46;81.77;99339.84;121274;1141;104359;-82
2021/01/28 11:52:09;;;;;;;23.18;8.95;;;;;;;0.42;82.04;99330.16;121295;1141;104426;-83
2021/01/28 11:54:39;;;;;;;20.53;7.50;;;;;;;0.40;81.95;99333.45;121296;1141;104455;-82
2021/01/28 11:57:08;;;;;;;20.80;7.73;;;;;;;0.40;81.84;99333.45;121000;1141;104333;-83